Time;durP1;ratioP1;P1;durP2;ratioP2;P2;SDS_P1;SDS_P2;PMS_P1;PMS_P2;Temp;Humidity;BMP_temperature;BMP_pressure;BME280_temperature;BME280_humidity;BME280_pressure;Samples;Min_cycle;Max_cycle;Signal;HPM_P1;HPM_P2
2022/06/27 00:01:48;;;;;;;4.60;3.25;;;;;;;;;;5012392;28;20095;-72
2022/06/27 00:04:13;;;;;;;4.13;3.10;;;;;;;;;;5013845;28;20021;-72
2022/06/27 00:06:38;;;;;;;6.63;3.10;;;;;;;;;;5013024;28;20344;-72
2022/06/27 00:09:04;;;;;;;4.15;2.70;;;;;;;;;;5011918;28;20034;-71
2022/06/27 00:11:29;;;;;;;4.13;2.92;;;;;;;;;;5011755;28;20041;-71
2022/06/27 00:13:55;;;;;;;6.85;4.05;;;;;;;;;;5012786;28;20021;-71
2022/06/27 00:16:20;;;;;;;4.55;2.92;;;;;;;;;;5037658;28;20445;-71
2022/06/27 00:18:46;;;;;;;8.70;2.90;;;;;;;;;;5015389;28;20033;-71
2022/06/27 00:21:11;;;;;;;3.55;3.00;;;;;;;;;;5011847;28;20109;-71
2022/06/27 00:23:36;;;;;;;3.58;2.80;;;;;;;;;;5011035;28;20045;-71
2022/06/27 00:26:02;;;;;;;4.32;3.30;;;;;;;;;;5012537;28;20030;-70
2022/06/27 00:28:27;;;;;;;5.97;3.08;;;;;;;;;;5012478;28;20377;-71
2022/06/27 00:30:52;;;;;;;3.20;2.88;;;;;;;;;;5014082;28;20065;-71
2022/06/27 00:33:18;;;;;;;3.80;3.50;;;;;;;;;;5011943;28;20427;-72
2022/06/27 00:35:44;;;;;;;3.30;3.00;;;;;;;;;;5012919;28;20045;-71
2022/06/27 00:38:09;;;;;;;7.10;3.85;;;;;;;;;;5010770;28;21170;-71
2022/06/27 00:40:34;;;;;;;3.63;3.03;;;;;;;;;;5012553;28;20064;-71
2022/06/27 00:43:00;;;;;;;3.15;2.88;;;;;;;;;;5014010;28;20021;-71
2022/06/27 00:45:25;;;;;;;3.65;3.25;;;;;;;;;;5012456;28;20434;-71
2022/06/27 00:47:51;;;;;;;3.85;2.90;;;;;;;;;;5012710;28;20048;-73
2022/06/27 00:50:16;;;;;;;5.63;3.55;;;;;;;;;;5010810;28;20084;-70
2022/06/27 00:52:42;;;;;;;5.13;3.20;;;;;;;;;;5014789;28;20104;-71
2022/06/27 00:55:08;;;;;;;4.20;3.45;;;;;;;;;;5015182;28;20352;-72
2022/06/27 00:57:34;;;;;;;8.30;3.50;;;;;;;;;;5009341;28;20057;-72
2022/06/27 00:59:59;;;;;;;6.28;3.50;;;;;;;;;;5012881;28;20542;-71
2022/06/27 01:02:25;;;;;;;5.82;3.03;;;;;;;;;;5011668;28;20447;-72
2022/06/27 01:04:50;;;;;;;3.30;3.00;;;;;;;;;;5014204;28;20421;-71
2022/06/27 01:07:15;;;;;;;7.47;2.88;;;;;;;;;;5013130;28;20069;-71
2022/06/27 01:09:41;;;;;;;3.60;2.85;;;;;;;;;;5009843;28;20039;-72
2022/06/27 01:12:07;;;;;;;10.30;3.38;;;;;;;;;;5012357;28;20039;-71
2022/06/27 01:14:33;;;;;;;6.93;3.42;;;;;;;;;;5011504;28;20371;-71
2022/06/27 01:16:58;;;;;;;17.20;3.67;;;;;;;;;;5013216;28;20029;-71
2022/06/27 01:19:24;;;;;;;5.82;3.60;;;;;;;;;;5010338;28;20037;-71
2022/06/27 01:21:51;;;;;;;3.25;2.95;;;;;;;;;;5013147;28;20029;-71
2022/06/27 01:24:17;;;;;;;5.30;3.60;;;;;;;;;;5012543;28;20048;-71
2022/06/27 01:26:43;;;;;;;3.53;3.22;;;;;;;;;;5011943;28;20021;-71
2022/06/27 01:29:09;;;;;;;4.38;3.15;;;;;;;;;;5012214;28;20030;-71
2022/06/27 01:31:35;;;;;;;5.63;3.38;;;;;;;;;;5012100;28;20029;-71
2022/06/27 01:34:00;;;;;;;8.30;2.95;;;;;;;;;;5013197;28;20436;-74
2022/06/27 01:36:44;;;;;;;5.38;3.28;;;;;;;;;;5009872;28;20025;-73
2022/06/27 01:39:14;;;;;;;3.78;3.08;;;;;;;;;;5009573;28;20034;-74
2022/06/27 01:41:40;;;;;;;4.25;3.50;;;;;;;;;;5018954;28;20102;-71
2022/06/27 01:44:07;;;;;;;5.80;3.53;;;;;;;;;;5017717;28;20033;-71
2022/06/27 01:46:38;;;;;;;4.32;3.25;;;;;;;;;;5020449;28;20428;-72
2022/06/27 01:49:03;;;;;;;4.65;3.13;;;;;;;;;;5016977;28;20363;-71
2022/06/27 01:51:29;;;;;;;3.72;3.25;;;;;;;;;;5020376;28;20014;-71
2022/06/27 01:53:54;;;;;;;3.13;2.85;;;;;;;;;;5018423;28;20214;-72
2022/06/27 01:56:20;;;;;;;4.85;2.90;;;;;;;;;;5019755;28;20028;-71
2022/06/27 01:58:45;;;;;;;6.43;3.13;;;;;;;;;;5018779;28;20033;-74
2022/06/27 02:01:10;;;;;;;4.35;3.10;;;;;;;;;;5017908;28;20064;-71
2022/06/27 02:03:36;;;;;;;4.93;3.05;;;;;;;;;;5018095;28;20037;-71
2022/06/27 02:06:01;;;;;;;7.70;3.60;;;;;;;;;;5018481;28;20038;-74
2022/06/27 02:08:27;;;;;;;15.20;4.07;;;;;;;;;;5016392;28;20452;-72
2022/06/27 02:10:52;;;;;;;8.25;2.78;;;;;;;;;;5022267;28;20052;-73
2022/06/27 02:13:18;;;;;;;3.97;2.97;;;;;;;;;;5025611;28;20753;-71
2022/06/27 02:16:02;;;;;;;5.65;3.33;;;;;;;;;;5025453;28;20033;-70
2022/06/27 02:18:28;;;;;;;4.28;3.28;;;;;;;;;;5026813;28;20453;-71
2022/06/27 02:20:53;;;;;;;3.50;3.20;;;;;;;;;;5027834;28;20107;-72
2022/06/27 02:23:18;;;;;;;3.67;3.28;;;;;;;;;;5027323;28;20029;-72
2022/06/27 02:25:45;;;;;;;4.45;2.85;;;;;;;;;;5026020;28;20099;-70
2022/06/27 02:28:12;;;;;;;3.70;3.00;;;;;;;;;;5022480;28;20068;-71
2022/06/27 02:30:37;;;;;;;5.55;3.50;;;;;;;;;;5025382;28;20036;-71
2022/06/27 02:33:03;;;;;;;3.80;3.08;;;;;;;;;;5022787;28;20026;-71
2022/06/27 02:35:29;;;;;;;5.47;3.83;;;;;;;;;;5023555;28;20360;-71
2022/06/27 02:37:55;;;;;;;7.38;3.70;;;;;;;;;;5023918;28;20032;-71
2022/06/27 02:40:20;;;;;;;5.18;3.55;;;;;;;;;;5018612;28;20050;-71
2022/06/27 02:42:46;;;;;;;6.22;3.70;;;;;;;;;;4995843;28;20471;-72
2022/06/27 02:45:12;;;;;;;3.42;3.15;;;;;;;;;;4997778;28;20041;-72
2022/06/27 02:47:38;;;;;;;5.70;3.47;;;;;;;;;;4995297;28;20413;-71
2022/06/27 02:50:04;;;;;;;4.82;3.08;;;;;;;;;;4997959;28;20172;-71
2022/06/27 02:52:40;;;;;;;18.30;3.30;;;;;;;;;;4996256;28;20105;-71
2022/06/27 02:55:09;;;;;;;9.85;3.60;;;;;;;;;;4995572;28;20875;-71
2022/06/27 02:57:52;;;;;;;4.45;3.45;;;;;;;;;;4998804;28;20030;-71
2022/06/27 03:00:18;;;;;;;5.78;3.50;;;;;;;;;;4995765;28;20326;-72
2022/06/27 03:02:44;;;;;;;9.02;3.28;;;;;;;;;;5001201;28;20033;-73
2022/06/27 03:05:10;;;;;;;6.32;3.88;;;;;;;;;;4998452;28;20033;-71
2022/06/27 03:07:42;;;;;;;3.47;3.17;;;;;;;;;;4998850;28;20030;-71
2022/06/27 03:10:08;;;;;;;4.07;3.63;;;;;;;;;;4996717;28;20064;-74
2022/06/27 03:12:33;;;;;;;5.28;3.25;;;;;;;;;;4998947;28;20113;-73
2022/06/27 03:14:58;;;;;;;6.13;3.85;;;;;;;;;;4997527;28;20149;-71
2022/06/27 03:17:24;;;;;;;5.45;3.38;;;;;;;;;;4999926;28;20034;-71
2022/06/27 03:19:50;;;;;;;4.40;3.60;;;;;;;;;;4997834;28;20397;-73
2022/06/27 03:22:16;;;;;;;4.50;3.70;;;;;;;;;;4995241;28;20022;-71
2022/06/27 03:24:41;;;;;;;4.68;3.53;;;;;;;;;;4997148;28;20048;-70
2022/06/27 03:27:07;;;;;;;4.38;3.80;;;;;;;;;;4994735;28;20022;-72
2022/06/27 03:29:32;;;;;;;7.35;4.05;;;;;;;;;;4995657;28;20033;-72
2022/06/27 03:31:57;;;;;;;4.40;3.88;;;;;;;;;;4993040;28;22483;-71
2022/06/27 03:34:23;;;;;;;4.60;3.97;;;;;;;;;;4994609;28;20022;-71
2022/06/27 03:36:49;;;;;;;7.75;4.20;;;;;;;;;;4995352;28;20026;-71
2022/06/27 03:39:14;;;;;;;6.43;4.40;;;;;;;;;;4993897;28;20076;-71
2022/06/27 03:41:39;;;;;;;7.60;4.22;;;;;;;;;;5013798;28;20076;-71
2022/06/27 03:44:08;;;;;;;7.47;4.32;;;;;;;;;;5020038;28;20029;-73
2022/06/27 03:46:34;;;;;;;6.38;4.72;;;;;;;;;;5018533;28;20095;-74
2022/06/27 03:51:43;;;;;;;6.78;6.18;;;;;;;;;;5021329;28;20991;-72
2022/06/27 03:54:08;;;;;;;6.45;5.63;;;;;;;;;;5018949;28;20437;-71
2022/06/27 03:56:34;;;;;;;5.57;4.57;;;;;;;;;;5020679;28;20567;-71
2022/06/27 03:58:59;;;;;;;5.53;4.25;;;;;;;;;;5020139;28;20041;-71
2022/06/27 04:01:25;;;;;;;4.75;4.18;;;;;;;;;;5019993;28;20607;-74
2022/06/27 04:03:50;;;;;;;4.57;3.70;;;;;;;;;;5021049;28;20037;-73
2022/06/27 04:06:16;;;;;;;5.13;4.60;;;;;;;;;;5017720;28;20029;-71
2022/06/27 04:08:43;;;;;;;4.72;4.30;;;;;;;;;;5018338;28;20099;-71
2022/06/27 04:11:08;;;;;;;5.18;3.40;;;;;;;;;;5020111;28;20136;-71
2022/06/27 04:13:33;;;;;;;4.00;3.63;;;;;;;;;;5021976;28;20049;-72
2022/06/27 04:15:59;;;;;;;6.10;4.20;;;;;;;;;;5021958;28;20065;-72
2022/06/27 04:18:24;;;;;;;5.60;5.10;;;;;;;;;;5020824;28;20032;-74
2022/06/27 04:20:49;;;;;;;4.63;4.22;;;;;;;;;;5019866;28;20459;-72
2022/06/27 04:23:15;;;;;;;4.40;3.65;;;;;;;;;;5018035;28;20176;-71
2022/06/27 04:25:42;;;;;;;6.18;4.35;;;;;;;;;;5019034;28;20135;-73
2022/06/27 04:28:07;;;;;;;4.97;4.57;;;;;;;;;;5018780;28;20041;-72
2022/06/27 04:30:33;;;;;;;8.68;4.40;;;;;;;;;;5019010;28;20029;-71
2022/06/27 04:32:59;;;;;;;5.82;4.00;;;;;;;;;;5020043;28;20021;-71
2022/06/27 04:35:25;;;;;;;4.47;4.07;;;;;;;;;;5019568;28;20405;-71
2022/06/27 04:37:50;;;;;;;6.10;3.92;;;;;;;;;;5019374;28;20211;-71
2022/06/27 04:40:17;;;;;;;4.18;3.80;;;;;;;;;;5015991;28;20062;-71
2022/06/27 04:42:43;;;;;;;4.20;3.83;;;;;;;;;;4992026;28;20026;-71
2022/06/27 04:45:12;;;;;;;9.75;4.35;;;;;;;;;;4993385;28;20361;-71
2022/06/27 04:47:41;;;;;;;5.22;4.40;;;;;;;;;;4994311;28;20038;-71
2022/06/27 04:50:08;;;;;;;5.55;5.03;;;;;;;;;;4991062;28;20022;-72
2022/06/27 04:52:34;;;;;;;5.68;3.90;;;;;;;;;;4992707;28;20030;-71
2022/06/27 04:55:00;;;;;;;6.78;4.40;;;;;;;;;;4992547;28;20033;-72
2022/06/27 04:57:26;;;;;;;8.25;4.60;;;;;;;;;;4990820;28;20033;-71
2022/06/27 04:59:51;;;;;;;8.60;3.72;;;;;;;;;;4993424;28;20029;-72
2022/06/27 05:02:18;;;;;;;4.60;4.20;;;;;;;;;;4993681;28;20029;-71
2022/06/27 05:04:44;;;;;;;4.63;4.20;;;;;;;;;;4995187;28;20033;-71
2022/06/27 05:07:09;;;;;;;6.65;4.68;;;;;;;;;;4995213;28;20032;-72
2022/06/27 05:09:34;;;;;;;6.50;5.10;;;;;;;;;;4995956;28;20033;-71
2022/06/27 05:12:00;;;;;;;4.38;3.83;;;;;;;;;;4995280;28;20025;-71
2022/06/27 05:14:25;;;;;;;6.40;4.32;;;;;;;;;;4992772;28;20461;-71
2022/06/27 05:16:50;;;;;;;7.00;4.70;;;;;;;;;;4993842;28;20018;-72
2022/06/27 05:19:16;;;;;;;6.68;4.88;;;;;;;;;;4994796;28;20038;-72
2022/06/27 05:21:42;;;;;;;8.60;4.70;;;;;;;;;;4993342;28;20018;-72
2022/06/27 05:24:07;;;;;;;5.43;4.72;;;;;;;;;;4993452;28;20023;-74
2022/06/27 05:26:33;;;;;;;5.03;4.63;;;;;;;;;;4993695;28;20029;-74
2022/06/27 05:29:01;;;;;;;5.07;4.57;;;;;;;;;;4994418;28;20046;-72
2022/06/27 05:31:26;;;;;;;13.02;4.63;;;;;;;;;;4993509;28;20045;-72
2022/06/27 05:33:52;;;;;;;5.90;5.05;;;;;;;;;;4993167;28;20030;-71
2022/06/27 05:36:17;;;;;;;6.22;4.60;;;;;;;;;;4994916;28;20399;-72
2022/06/27 05:38:43;;;;;;;6.90;4.40;;;;;;;;;;4992658;28;20043;-72
2022/06/27 05:41:09;;;;;;;4.75;4.30;;;;;;;;;;5005871;28;20049;-71
2022/06/27 05:43:34;;;;;;;7.63;3.88;;;;;;;;;;5019191;28;20114;-72
2022/06/27 05:46:00;;;;;;;4.90;4.40;;;;;;;;;;5019503;28;20083;-72
2022/06/27 05:48:25;;;;;;;6.10;4.90;;;;;;;;;;5017355;28;20041;-72
2022/06/27 05:50:51;;;;;;;5.38;4.72;;;;;;;;;;5015428;28;20025;-72
2022/06/27 05:53:17;;;;;;;4.93;4.10;;;;;;;;;;5018679;28;20024;-72
2022/06/27 05:55:46;;;;;;;4.30;4.00;;;;;;;;;;5018522;28;20026;-75
2022/06/27 05:58:12;;;;;;;5.00;4.20;;;;;;;;;;5020551;28;20029;-72
2022/06/27 06:00:37;;;;;;;7.45;5.00;;;;;;;;;;5018842;28;20032;-71
2022/06/27 06:03:03;;;;;;;4.82;4.43;;;;;;;;;;5017761;28;20045;-72
2022/06/27 06:05:29;;;;;;;5.70;4.53;;;;;;;;;;5016009;28;20025;-74
2022/06/27 06:07:59;;;;;;;8.13;4.63;;;;;;;;;;5017934;28;20048;-73
2022/06/27 06:10:25;;;;;;;6.55;4.30;;;;;;;;;;5016253;28;20057;-72
2022/06/27 06:12:51;;;;;;;6.28;4.55;;;;;;;;;;5016452;28;20064;-73
2022/06/27 06:15:16;;;;;;;7.97;5.25;;;;;;;;;;4998956;28;20049;-72
2022/06/27 06:17:42;;;;;;;10.73;9.63;;;;;;;;;;5019315;28;20033;-71
2022/06/27 06:20:08;;;;;;;15.40;11.85;;;;;;;;;;5016093;28;20113;-73
2022/06/27 06:22:34;;;;;;;11.13;10.05;;;;;;;;;;5018378;28;20095;-71
2022/06/27 06:24:59;;;;;;;7.93;6.90;;;;;;;;;;5019052;28;20025;-72
2022/06/27 06:27:25;;;;;;;8.95;6.00;;;;;;;;;;5017795;28;20128;-73
2022/06/27 06:29:51;;;;;;;6.90;5.03;;;;;;;;;;5017098;28;20036;-71
2022/06/27 06:32:16;;;;;;;7.20;4.55;;;;;;;;;;5019571;28;20035;-71
2022/06/27 06:34:43;;;;;;;4.40;3.85;;;;;;;;;;5015965;28;20026;-71
2022/06/27 06:37:09;;;;;;;4.93;4.22;;;;;;;;;;5016917;28;20415;-71
2022/06/27 06:39:38;;;;;;;3.97;3.67;;;;;;;;;;5017475;28;20136;-72
2022/06/27 06:42:04;;;;;;;4.93;4.30;;;;;;;;;;5013411;28;20038;-72
2022/06/27 06:44:30;;;;;;;5.55;4.35;;;;;;;;;;5013151;28;20028;-75
2022/06/27 06:46:56;;;;;;;4.45;3.80;;;;;;;;;;5011643;28;20059;-72
2022/06/27 06:49:22;;;;;;;4.38;3.90;;;;;;;;;;5009782;28;20041;-74
2022/06/27 06:51:48;;;;;;;7.63;4.15;;;;;;;;;;5010842;28;20071;-74
2022/06/27 06:54:17;;;;;;;5.35;4.40;;;;;;;;;;5008624;28;20100;-72
2022/06/27 06:56:45;;;;;;;4.85;3.65;;;;;;;;;;5013023;28;20018;-72
2022/06/27 06:59:10;;;;;;;7.88;3.83;;;;;;;;;;5013660;28;20346;-74
2022/06/27 07:01:37;;;;;;;5.03;3.92;;;;;;;;;;5013240;28;20504;-72
2022/06/27 07:04:03;;;;;;;4.03;3.70;;;;;;;;;;5013683;28;20025;-71
2022/06/27 07:06:29;;;;;;;6.72;3.95;;;;;;;;;;5015027;28;20305;-71
2022/06/27 07:08:55;;;;;;;4.35;3.97;;;;;;;;;;5014034;28;20033;-72
2022/06/27 07:11:21;;;;;;;4.40;4.00;;;;;;;;;;5014339;28;20116;-73
2022/06/27 07:13:48;;;;;;;7.00;3.90;;;;;;;;;;5012697;28;20030;-73
2022/06/27 07:16:14;;;;;;;6.05;4.20;;;;;;;;;;5014276;28;20036;-73
2022/06/27 07:18:39;;;;;;;7.50;4.38;;;;;;;;;;5013681;28;20040;-73
2022/06/27 07:21:06;;;;;;;5.95;4.00;;;;;;;;;;5012350;28;20368;-73
2022/06/27 07:23:32;;;;;;;5.15;4.05;;;;;;;;;;5014627;28;20041;-73
2022/06/27 07:25:57;;;;;;;3.72;3.40;;;;;;;;;;5015140;28;20036;-73
2022/06/27 07:28:26;;;;;;;3.60;3.30;;;;;;;;;;5013359;28;20376;-73
2022/06/27 07:30:51;;;;;;;4.13;3.72;;;;;;;;;;5014610;28;20104;-72
2022/06/27 07:33:17;;;;;;;4.35;3.78;;;;;;;;;;5010912;28;20077;-73
2022/06/27 07:35:43;;;;;;;3.78;3.40;;;;;;;;;;5013522;28;20097;-72
2022/06/27 07:38:08;;;;;;;4.93;3.42;;;;;;;;;;5013741;28;20039;-71
2022/06/27 07:40:34;;;;;;;7.13;3.65;;;;;;;;;;5016430;28;20041;-74
2022/06/27 07:42:59;;;;;;;3.67;3.28;;;;;;;;;;5013954;28;20335;-73
2022/06/27 07:45:27;;;;;;;3.83;3.35;;;;;;;;;;5013468;28;20053;-76
2022/06/27 07:47:54;;;;;;;3.92;3.47;;;;;;;;;;5012129;28;20413;-74
2022/06/27 07:50:37;;;;;;;3.13;2.83;;;;;;;;;;5013503;28;20433;-73
2022/06/27 07:53:17;;;;;;;3.95;3.08;;;;;;;;;;5012189;28;20036;-73
2022/06/27 07:55:53;;;;;;;3.67;3.25;;;;;;;;;;5012021;28;20515;-76
2022/06/27 07:58:19;;;;;;;4.10;3.67;;;;;;;;;;5014392;28;20121;-75
2022/06/27 08:00:48;;;;;;;4.18;3.47;;;;;;;;;;5012581;28;20037;-75
2022/06/27 08:05:58;;;;;;;4.55;3.35;;;;;;;;;;5012159;28;20052;-74
2022/06/27 08:08:24;;;;;;;5.30;3.20;;;;;;;;;;5015306;28;20356;-76
2022/06/27 08:10:50;;;;;;;3.42;3.13;;;;;;;;;;5013685;28;20037;-75
2022/06/27 08:13:16;;;;;;;3.97;2.65;;;;;;;;;;5013276;28;20051;-74
2022/06/27 08:15:42;;;;;;;4.03;2.83;;;;;;;;;;5015667;28;20326;-75
2022/06/27 08:18:08;;;;;;;3.30;2.65;;;;;;;;;;5012966;28;20083;-74
2022/06/27 08:20:35;;;;;;;4.03;2.75;;;;;;;;;;5012440;28;20025;-75
2022/06/27 08:23:01;;;;;;;3.35;2.45;;;;;;;;;;5009988;28;20041;-75
2022/06/27 08:25:26;;;;;;;3.60;2.70;;;;;;;;;;5015443;28;20029;-73
2022/06/27 08:27:52;;;;;;;3.45;2.70;;;;;;;;;;5013596;28;20348;-77
2022/06/27 08:30:17;;;;;;;3.50;2.95;;;;;;;;;;5014512;28;20029;-76
2022/06/27 08:32:43;;;;;;;5.45;2.92;;;;;;;;;;5015059;28;20527;-77
2022/06/27 08:35:08;;;;;;;2.60;2.33;;;;;;;;;;5013154;28;20022;-74
2022/06/27 08:37:34;;;;;;;3.60;2.55;;;;;;;;;;5011680;28;20410;-74
2022/06/27 08:40:01;;;;;;;2.60;2.40;;;;;;;;;;5011045;28;20029;-75
2022/06/27 08:42:27;;;;;;;2.63;2.22;;;;;;;;;;5018671;28;20033;-73
2022/06/27 08:44:52;;;;;;;4.03;2.50;;;;;;;;;;5019390;28;20404;-74
2022/06/27 08:47:19;;;;;;;3.67;2.33;;;;;;;;;;5018579;28;20031;-73
2022/06/27 08:49:46;;;;;;;2.30;2.10;;;;;;;;;;5016718;28;20076;-73
2022/06/27 08:52:11;;;;;;;2.40;2.20;;;;;;;;;;5018020;28;20086;-72
2022/06/27 08:54:40;;;;;;;2.47;2.28;;;;;;;;;;5016668;28;20045;-73
2022/06/27 08:57:07;;;;;;;3.95;2.25;;;;;;;;;;5018022;28;20029;-75
2022/06/27 08:59:33;;;;;;;2.17;1.88;;;;;;;;;;5017966;28;20459;-74
2022/06/27 09:01:59;;;;;;;1.90;1.80;;;;;;;;;;5019485;28;20025;-73
2022/06/27 09:04:24;;;;;;;1.80;1.70;;;;;;;;;;5020842;28;20028;-73
2022/06/27 09:06:50;;;;;;;2.20;2.00;;;;;;;;;;5017013;28;20439;-73
2022/06/27 09:09:15;;;;;;;1.88;1.70;;;;;;;;;;5017606;28;20029;-73
2022/06/27 09:11:42;;;;;;;2.22;2.08;;;;;;;;;;5019116;28;20476;-73
2022/06/27 09:14:27;;;;;;;2.28;1.92;;;;;;;;;;5016882;28;20022;-73
2022/06/27 09:16:57;;;;;;;3.30;2.10;;;;;;;;;;5018297;28;20124;-73
2022/06/27 09:19:42;;;;;;;1.60;1.50;;;;;;;;;;4998057;28;20373;-76
2022/06/27 09:22:15;;;;;;;5.40;1.58;;;;;;;;;;5017988;28;20021;-74
2022/06/27 09:24:59;;;;;;;5.18;2.10;;;;;;;;;;5019950;28;20036;-74
2022/06/27 09:27:44;;;;;;;2.83;1.73;;;;;;;;;;5019065;28;20108;-74
2022/06/27 09:30:21;;;;;;;5.03;2.60;;;;;;;;;;5020020;28;20055;-74
2022/06/27 09:32:49;;;;;;;2.25;2.05;;;;;;;;;;5019835;28;20033;-73
2022/06/27 09:35:31;;;;;;;3.38;3.08;;;;;;;;;;5019316;28;20083;-74
2022/06/27 09:37:58;;;;;;;4.60;2.33;;;;;;;;;;5016902;28;20033;-74
2022/06/27 09:40:24;;;;;;;1.60;1.50;;;;;;;;;;5013941;28;20818;-74
2022/06/27 09:42:54;;;;;;;3.70;1.80;;;;;;;;;;5012549;28;20364;-74
2022/06/27 09:45:22;;;;;;;1.48;1.38;;;;;;;;;;5013780;28;20025;-74
2022/06/27 09:47:47;;;;;;;2.95;1.67;;;;;;;;;;5012734;28;20025;-74
2022/06/27 09:50:13;;;;;;;3.50;1.85;;;;;;;;;;5018844;28;20037;-75
2022/06/27 09:52:39;;;;;;;3.17;1.80;;;;;;;;;;5009702;28;20330;-75
2022/06/27 09:55:06;;;;;;;2.08;1.73;;;;;;;;;;5015239;28;20028;-75
2022/06/27 09:57:33;;;;;;;1.33;1.23;;;;;;;;;;5014751;28;20441;-75
2022/06/27 10:00:00;;;;;;;2.20;1.70;;;;;;;;;;5007531;28;20032;-76
2022/06/27 10:02:26;;;;;;;3.83;1.60;;;;;;;;;;5006250;28;21248;-72
2022/06/27 10:04:51;;;;;;;2.58;1.63;;;;;;;;;;5007061;28;20029;-72
2022/06/27 10:07:17;;;;;;;3.72;2.00;;;;;;;;;;5010392;28;20079;-72
2022/06/27 10:09:43;;;;;;;2.05;1.85;;;;;;;;;;5005635;28;20059;-74
2022/06/27 10:12:25;;;;;;;3.20;1.85;;;;;;;;;;5007805;28;20025;-72
2022/06/27 10:15:09;;;;;;;1.75;1.60;;;;;;;;;;5005242;28;20037;-73
2022/06/27 10:17:39;;;;;;;1.98;1.80;;;;;;;;;;5002915;28;20033;-71
2022/06/27 10:20:07;;;;;;;2.80;1.70;;;;;;;;;;5004953;28;20540;-75
2022/06/27 10:22:33;;;;;;;1.90;1.80;;;;;;;;;;5006570;28;20031;-71
2022/06/27 10:25:17;;;;;;;1.60;1.50;;;;;;;;;;5010823;28;20026;-71
2022/06/27 10:27:42;;;;;;;2.63;1.60;;;;;;;;;;5012981;28;20120;-74
2022/06/27 10:30:27;;;;;;;7.15;1.90;;;;;;;;;;5013271;28;20111;-72
2022/06/27 10:32:52;;;;;;;1.83;1.70;;;;;;;;;;5007615;28;20056;-76
2022/06/27 10:35:17;;;;;;;3.20;1.80;;;;;;;;;;5009692;28;21112;-73
2022/06/27 10:37:43;;;;;;;1.90;1.80;;;;;;;;;;5010478;28;20025;-72
2022/06/27 10:40:22;;;;;;;2.25;1.58;;;;;;;;;;5014566;28;20481;-71
2022/06/27 10:42:51;;;;;;;1.98;1.70;;;;;;;;;;5014816;28;20022;-71
2022/06/27 10:45:20;;;;;;;2.38;1.85;;;;;;;;;;5015008;28;20017;-72
2022/06/27 10:47:46;;;;;;;6.47;2.00;;;;;;;;;;5017037;28;20072;-71
2022/06/27 10:50:12;;;;;;;3.03;1.88;;;;;;;;;;5016301;28;20033;-72
2022/06/27 10:52:38;;;;;;;2.10;1.63;;;;;;;;;;5009669;28;21084;-71
2022/06/27 10:55:20;;;;;;;3.83;1.58;;;;;;;;;;5016924;28;20052;-71
2022/06/27 10:57:45;;;;;;;1.60;1.50;;;;;;;;;;5015571;28;20080;-71
2022/06/27 11:00:31;;;;;;;2.25;1.83;;;;;;;;;;5014180;28;20053;-71
2022/06/27 11:02:56;;;;;;;2.15;1.58;;;;;;;;;;5020122;28;20025;-75
2022/06/27 11:05:22;;;;;;;2.42;1.60;;;;;;;;;;5009885;28;20366;-73
2022/06/27 11:07:50;;;;;;;4.38;1.77;;;;;;;;;;5019760;28;20037;-74
2022/06/27 11:10:15;;;;;;;4.72;1.55;;;;;;;;;;5007203;28;20057;-71
2022/06/27 11:12:41;;;;;;;4.85;2.20;;;;;;;;;;5014456;28;20711;-73
2022/06/27 11:15:09;;;;;;;9.82;3.20;;;;;;;;;;5009895;28;20028;-71
2022/06/27 11:17:39;;;;;;;3.42;2.20;;;;;;;;;;5011721;28;20040;-73
2022/06/27 11:20:11;;;;;;;4.22;1.88;;;;;;;;;;5009693;28;20106;-72
2022/06/27 11:22:37;;;;;;;3.42;1.55;;;;;;;;;;5007988;28;20029;-73
2022/06/27 11:25:03;;;;;;;2.67;1.30;;;;;;;;;;5007024;28;20455;-71
2022/06/27 11:27:48;;;;;;;2.35;1.42;;;;;;;;;;5010086;28;20024;-72
2022/06/27 11:33:10;;;;;;;1.80;1.20;;;;;;;;;;5006787;28;20120;-73
2022/06/27 11:35:35;;;;;;;5.35;1.30;;;;;;;;;;5009402;28;20104;-71
2022/06/27 11:38:00;;;;;;;2.40;1.38;;;;;;;;;;5008616;28;20025;-73
2022/06/27 11:40:26;;;;;;;1.63;1.33;;;;;;;;;;5008335;28;20060;-71
2022/06/27 11:42:52;;;;;;;1.52;1.02;;;;;;;;;;5021590;28;20048;-75
2022/06/27 11:45:18;;;;;;;3.40;1.60;;;;;;;;;;5008082;28;20028;-72
2022/06/27 11:47:45;;;;;;;1.13;1.10;;;;;;;;;;5007963;28;20038;-76
2022/06/27 11:50:19;;;;;;;2.53;1.20;;;;;;;;;;5008265;28;20052;-72
2022/06/27 11:52:48;;;;;;;2.95;1.40;;;;;;;;;;5007066;28;20055;-73
2022/06/27 11:55:15;;;;;;;2.63;1.70;;;;;;;;;;5008491;28;20056;-72
2022/06/27 11:57:48;;;;;;;2.38;1.40;;;;;;;;;;5009072;28;20029;-73
2022/06/27 12:00:20;;;;;;;4.80;1.50;;;;;;;;;;5009111;28;20029;-73
2022/06/27 12:02:50;;;;;;;3.20;1.45;;;;;;;;;;5008118;28;20025;-71
2022/06/27 12:05:19;;;;;;;2.00;1.08;;;;;;;;;;5008172;28;20066;-72
2022/06/27 12:07:52;;;;;;;2.10;1.08;;;;;;;;;;5012250;28;20094;-73
2022/06/27 12:10:33;;;;;;;3.85;1.40;;;;;;;;;;5007926;28;20041;-70
2022/06/27 12:12:58;;;;;;;1.27;1.17;;;;;;;;;;5009039;28;20064;-70
2022/06/27 12:15:26;;;;;;;3.00;1.33;;;;;;;;;;5004844;28;20384;-74
2022/06/27 12:17:55;;;;;;;4.68;1.25;;;;;;;;;;5013249;28;20343;-71
2022/06/27 12:20:20;;;;;;;2.40;1.52;;;;;;;;;;5017859;28;20128;-70
2022/06/27 12:22:46;;;;;;;2.28;1.58;;;;;;;;;;5017176;28;20111;-71
2022/06/27 12:25:12;;;;;;;2.65;1.40;;;;;;;;;;5009602;28;20021;-71
2022/06/27 12:27:37;;;;;;;3.13;1.30;;;;;;;;;;5007206;28;20436;-70
2022/06/27 12:30:03;;;;;;;2.38;1.30;;;;;;;;;;5008081;28;20151;-71
2022/06/27 12:32:29;;;;;;;2.30;1.30;;;;;;;;;;5007212;28;20440;-71
2022/06/27 12:34:54;;;;;;;2.35;1.60;;;;;;;;;;5007573;28;20036;-72
2022/06/27 12:37:19;;;;;;;2.92;1.45;;;;;;;;;;5008538;28;20498;-73
2022/06/27 12:39:45;;;;;;;2.17;1.75;;;;;;;;;;5008811;28;20021;-73
2022/06/27 12:42:10;;;;;;;1.98;1.52;;;;;;;;;;5007586;28;20061;-74
2022/06/27 12:44:36;;;;;;;9.80;5.43;;;;;;;;;;5005447;28;20018;-71
2022/06/27 12:47:03;;;;;;;25.83;15.48;;;;;;;;;;5011492;28;20033;-71
2022/06/27 12:49:28;;;;;;;11.43;6.40;;;;;;;;;;5005701;28;20396;-71
2022/06/27 12:51:54;;;;;;;24.25;14.70;;;;;;;;;;5008410;28;20025;-73
2022/06/27 12:54:19;;;;;;;9.75;6.53;;;;;;;;;;5005133;28;20039;-71
2022/06/27 12:56:46;;;;;;;11.80;9.63;;;;;;;;;;5003241;28;20135;-72
2022/06/27 12:59:11;;;;;;;4.05;3.22;;;;;;;;;;5007005;28;20036;-74
2022/06/27 13:01:37;;;;;;;12.10;8.50;;;;;;;;;;5006649;28;20357;-72
2022/06/27 13:04:02;;;;;;;45.70;32.50;;;;;;;;;;5010364;28;20029;-72
2022/06/27 13:06:28;;;;;;;23.95;19.83;;;;;;;;;;5007861;28;20388;-71
2022/06/27 13:08:53;;;;;;;15.70;10.90;;;;;;;;;;5008385;28;20025;-71
2022/06/27 13:11:19;;;;;;;13.18;10.32;;;;;;;;;;5006765;28;20053;-71
2022/06/27 13:13:44;;;;;;;6.50;3.92;;;;;;;;;;5006405;28;20014;-71
2022/06/27 13:16:09;;;;;;;3.78;2.78;;;;;;;;;;5008099;28;20033;-72
2022/06/27 13:18:35;;;;;;;31.20;21.27;;;;;;;;;;5008453;28;20084;-72
2022/06/27 13:21:00;;;;;;;6.97;6.28;;;;;;;;;;5013156;28;20029;-73
2022/06/27 13:23:26;;;;;;;5.93;5.05;;;;;;;;;;5014499;28;20154;-75
2022/06/27 13:25:51;;;;;;;8.68;7.47;;;;;;;;;;5007182;28;20440;-70
2022/06/27 13:28:17;;;;;;;9.27;8.13;;;;;;;;;;5014004;28;20344;-74
2022/06/27 13:30:42;;;;;;;11.70;10.20;;;;;;;;;;5006748;28;20029;-73
2022/06/27 13:33:08;;;;;;;7.72;6.85;;;;;;;;;;5013778;28;20053;-69
2022/06/27 13:35:33;;;;;;;64.65;46.15;;;;;;;;;;5012547;28;20400;-69
2022/06/27 13:38:00;;;;;;;107.05;85.18;;;;;;;;;;5016002;28;20384;-71
2022/06/27 13:40:25;;;;;;;16.70;12.77;;;;;;;;;;5018410;28;20037;-70
2022/06/27 13:42:51;;;;;;;24.13;20.90;;;;;;;;;;5011856;28;20079;-71
2022/06/27 13:45:17;;;;;;;23.63;20.95;;;;;;;;;;5004506;28;20129;-74
2022/06/27 13:47:43;;;;;;;13.57;12.38;;;;;;;;;;5006536;28;20033;-72
2022/06/27 13:50:08;;;;;;;13.82;12.63;;;;;;;;;;5007657;28;20108;-69
2022/06/27 13:52:34;;;;;;;4.05;3.75;;;;;;;;;;5012621;28;20064;-69
2022/06/27 13:55:00;;;;;;;5.40;3.05;;;;;;;;;;5015240;28;20053;-73
2022/06/27 13:57:26;;;;;;;2.47;2.25;;;;;;;;;;5005425;28;20071;-70
2022/06/27 13:59:53;;;;;;;4.40;2.25;;;;;;;;;;5004203;28;20025;-70
2022/06/27 14:02:18;;;;;;;4.55;2.20;;;;;;;;;;5006601;28;20106;-74
2022/06/27 14:04:44;;;;;;;14.70;13.20;;;;;;;;;;5004636;28;20978;-72
2022/06/27 14:09:53;;;;;;;5.78;4.97;;;;;;;;;;4999160;28;20045;-69
2022/06/27 14:12:18;;;;;;;3.80;3.50;;;;;;;;;;5008619;28;20029;-69
2022/06/27 14:14:44;;;;;;;2.60;2.13;;;;;;;;;;5003133;28;20087;-71
2022/06/27 14:17:09;;;;;;;3.25;2.17;;;;;;;;;;5014921;28;20033;-70
2022/06/27 14:19:35;;;;;;;2.95;2.00;;;;;;;;;;5015274;28;20034;-70
2022/06/27 14:22:03;;;;;;;3.67;2.35;;;;;;;;;;5012449;28;20029;-70
2022/06/27 14:24:28;;;;;;;2.75;2.10;;;;;;;;;;5012863;28;20112;-75
2022/06/27 14:26:54;;;;;;;2.75;2.08;;;;;;;;;;5006288;28;20370;-72
2022/06/27 14:29:19;;;;;;;3.53;2.13;;;;;;;;;;5010613;28;20037;-71
2022/06/27 14:31:44;;;;;;;3.80;2.10;;;;;;;;;;5014180;28;20075;-68
2022/06/27 14:34:10;;;;;;;3.47;2.30;;;;;;;;;;5014405;28;20037;-73
2022/06/27 14:36:35;;;;;;;4.97;2.05;;;;;;;;;;5005347;28;20030;-73
2022/06/27 14:39:01;;;;;;;2.13;1.98;;;;;;;;;;5001172;28;20409;-72
2022/06/27 14:41:27;;;;;;;2.10;2.00;;;;;;;;;;5003749;28;20849;-68
2022/06/27 14:43:52;;;;;;;1.83;1.70;;;;;;;;;;5005474;28;20075;-72
2022/06/27 14:46:17;;;;;;;2.47;2.10;;;;;;;;;;5009500;28;20126;-70
2022/06/27 14:48:43;;;;;;;3.13;2.55;;;;;;;;;;5004312;28;20147;-72
2022/06/27 14:51:09;;;;;;;7.10;6.32;;;;;;;;;;5009062;28;20452;-71